sensor_id;sensor_type;location;lat;lon;timestamp;pressure;altitude;pressure_sealevel;temperature;humidity
10992;BME280;5549;47.028;15.514;2023-04-01T00:01:32;95317.94;;;10.77;71.99
10992;BME280;5549;47.028;15.514;2023-04-01T00:04:03;95318.22;;;10.66;73.71
10992;BME280;5549;47.028;15.514;2023-04-01T00:06:34;95307.09;;;10.72;73.01
10992;BME280;5549;47.028;15.514;2023-04-01T00:09:03;95301.66;;;10.73;73.10
10992;BME280;5549;47.028;15.514;2023-04-01T00:11:30;95313.00;;;10.74;73.22
10992;BME280;5549;47.028;15.514;2023-04-01T00:14:03;95311.03;;;10.76;73.23
10992;BME280;5549;47.028;15.514;2023-04-01T00:16:31;95312.66;;;10.69;73.39
10992;BME280;5549;47.028;15.514;2023-04-01T00:18:59;95301.81;;;10.64;74.08
10992;BME280;5549;47.028;15.514;2023-04-01T00:21:29;95300.16;;;10.63;74.33
10992;BME280;5549;47.028;15.514;2023-04-01T00:23:57;95295.09;;;10.27;74.07
10992;BME280;5549;47.028;15.514;2023-04-01T00:26:25;95292.81;;;10.32;73.72
10992;BME280;5549;47.028;15.514;2023-04-01T00:28:55;95286.56;;;10.25;73.43
10992;BME280;5549;47.028;15.514;2023-04-01T00:31:27;95282.66;;;10.37;73.19
10992;BME280;5549;47.028;15.514;2023-04-01T00:33:55;95285.34;;;10.19;73.16
10992;BME280;5549;47.028;15.514;2023-04-01T00:36:26;95291.19;;;10.05;73.96
10992;BME280;5549;47.028;15.514;2023-04-01T00:38:57;95288.88;;;10.02;74.17
10992;BME280;5549;47.028;15.514;2023-04-01T00:41:24;95285.81;;;10.15;73.81
10992;BME280;5549;47.028;15.514;2023-04-01T00:43:52;95273.09;;;10.20;73.72
10992;BME280;5549;47.028;15.514;2023-04-01T00:46:20;95282.50;;;10.05;73.82
10992;BME280;5549;47.028;15.514;2023-04-01T00:48:51;95281.22;;;10.09;74.20
10992;BME280;5549;47.028;15.514;2023-04-01T00:51:28;95283.00;;;10.08;74.29
10992;BME280;5549;47.028;15.514;2023-04-01T00:53:58;95277.91;;;10.07;73.96
10992;BME280;5549;47.028;15.514;2023-04-01T00:56:33;95275.00;;;10.10;73.16
10992;BME280;5549;47.028;15.514;2023-04-01T00:59:05;95272.72;;;10.15;73.32
10992;BME280;5549;47.028;15.514;2023-04-01T01:01:37;95269.38;;;10.31;72.77
10992;BME280;5549;47.028;15.514;2023-04-01T01:04:06;95266.72;;;10.22;72.53
10992;BME280;5549;47.028;15.514;2023-04-01T01:06:44;95253.44;;;10.24;72.84
10992;BME280;5549;47.028;15.514;2023-04-01T01:09:30;95249.34;;;10.29;72.28
10992;BME280;5549;47.028;15.514;2023-04-01T01:12:07;95244.78;;;10.40;71.76
10992;BME280;5549;47.028;15.514;2023-04-01T01:14:59;95243.19;;;10.47;71.55
10992;BME280;5549;47.028;15.514;2023-04-01T01:17:43;95245.66;;;10.48;70.96
10992;BME280;5549;47.028;15.514;2023-04-01T01:20:42;95253.81;;;10.37;71.56
10992;BME280;5549;47.028;15.514;2023-04-01T01:24:19;95247.41;;;10.40;70.94
10992;BME280;5549;47.028;15.514;2023-04-01T01:27:02;95241.41;;;10.47;70.20
10992;BME280;5549;47.028;15.514;2023-04-01T01:30:11;95247.06;;;10.35;71.00
10992;BME280;5549;47.028;15.514;2023-04-01T01:33:13;95238.28;;;10.44;71.10
10992;BME280;5549;47.028;15.514;2023-04-01T01:35:49;95237.13;;;10.46;70.54
10992;BME280;5549;47.028;15.514;2023-04-01T01:38:21;95237.59;;;10.42;70.40
10992;BME280;5549;47.028;15.514;2023-04-01T01:40:55;95231.47;;;10.33;71.16
10992;BME280;5549;47.028;15.514;2023-04-01T01:43:31;95229.03;;;10.32;71.28
10992;BME280;5549;47.028;15.514;2023-04-01T01:46:05;95228.19;;;10.31;71.68
10992;BME280;5549;47.028;15.514;2023-04-01T01:48:36;95224.41;;;10.25;70.89
10992;BME280;5549;47.028;15.514;2023-04-01T01:51:06;95221.31;;;10.30;70.89
10992;BME280;5549;47.028;15.514;2023-04-01T01:53:35;95217.38;;;10.34;70.98
10992;BME280;5549;47.028;15.514;2023-04-01T01:56:06;95215.75;;;10.33;71.31
10992;BME280;5549;47.028;15.514;2023-04-01T01:58:40;95214.69;;;10.18;71.82
10992;BME280;5549;47.028;15.514;2023-04-01T02:01:16;95213.34;;;10.06;72.22
10992;BME280;5549;47.028;15.514;2023-04-01T02:03:46;95206.19;;;9.82;73.29
10992;BME280;5549;47.028;15.514;2023-04-01T02:06:18;95201.75;;;9.82;73.67
10992;BME280;5549;47.028;15.514;2023-04-01T02:08:51;95194.03;;;9.73;74.19
10992;BME280;5549;47.028;15.514;2023-04-01T02:11:26;95202.72;;;9.73;74.04
10992;BME280;5549;47.028;15.514;2023-04-01T02:14:04;95201.88;;;9.73;73.52
10992;BME280;5549;47.028;15.514;2023-04-01T02:16:39;95208.47;;;9.77;73.34
10992;BME280;5549;47.028;15.514;2023-04-01T02:19:13;95210.97;;;9.86;73.00
10992;BME280;5549;47.028;15.514;2023-04-01T02:22:03;95209.97;;;9.87;73.04
10992;BME280;5549;47.028;15.514;2023-04-01T02:24:36;95206.84;;;9.84;73.20
10992;BME280;5549;47.028;15.514;2023-04-01T02:27:05;95203.53;;;9.74;73.22
10992;BME280;5549;47.028;15.514;2023-04-01T02:29:35;95203.91;;;9.53;74.02
10992;BME280;5549;47.028;15.514;2023-04-01T02:32:04;95209.31;;;9.51;74.19
10992;BME280;5549;47.028;15.514;2023-04-01T02:34:33;95212.09;;;9.50;74.45
10992;BME280;5549;47.028;15.514;2023-04-01T02:37:06;95215.56;;;9.58;74.07
10992;BME280;5549;47.028;15.514;2023-04-01T02:39:36;95217.94;;;9.44;75.00
10992;BME280;5549;47.028;15.514;2023-04-01T02:42:06;95227.19;;;9.56;74.26
10992;BME280;5549;47.028;15.514;2023-04-01T02:44:34;95228.53;;;9.60;73.96
10992;BME280;5549;47.028;15.514;2023-04-01T02:47:03;95235.09;;;9.64;73.56
10992;BME280;5549;47.028;15.514;2023-04-01T02:49:31;95233.81;;;9.68;73.22
10992;BME280;5549;47.028;15.514;2023-04-01T02:51:59;95238.06;;;9.69;72.82
10992;BME280;5549;47.028;15.514;2023-04-01T02:54:30;95229.91;;;9.72;72.70
10992;BME280;5549;47.028;15.514;2023-04-01T02:57:00;95225.63;;;9.71;73.21
10992;BME280;5549;47.028;15.514;2023-04-01T02:59:31;95227.28;;;9.72;72.44
10992;BME280;5549;47.028;15.514;2023-04-01T03:01:59;95229.75;;;9.74;72.22
10992;BME280;5549;47.028;15.514;2023-04-01T03:04:29;95232.06;;;9.77;71.79
10992;BME280;5549;47.028;15.514;2023-04-01T03:06:59;95223.06;;;9.79;71.45
10992;BME280;5549;47.028;15.514;2023-04-01T03:09:27;95223.72;;;9.81;71.45
10992;BME280;5549;47.028;15.514;2023-04-01T03:11:57;95230.56;;;9.74;72.03
10992;BME280;5549;47.028;15.514;2023-04-01T03:14:27;95224.31;;;9.67;72.08
10992;BME280;5549;47.028;15.514;2023-04-01T03:16:55;95231.03;;;9.70;72.82
10992;BME280;5549;47.028;15.514;2023-04-01T03:19:24;95232.31;;;9.65;72.77
10992;BME280;5549;47.028;15.514;2023-04-01T03:21:56;95229.03;;;9.63;72.96
10992;BME280;5549;47.028;15.514;2023-04-01T03:24:24;95226.09;;;9.67;72.49
10992;BME280;5549;47.028;15.514;2023-04-01T03:26:52;95241.94;;;9.57;72.47
10992;BME280;5549;47.028;15.514;2023-04-01T03:29:23;95247.66;;;9.52;72.53
10992;BME280;5549;47.028;15.514;2023-04-01T03:31:53;95254.94;;;9.41;74.06
10992;BME280;5549;47.028;15.514;2023-04-01T03:34:31;95252.16;;;9.42;74.20
10992;BME280;5549;47.028;15.514;2023-04-01T03:37:01;95260.91;;;9.51;73.33
10992;BME280;5549;47.028;15.514;2023-04-01T03:39:29;95250.78;;;9.56;73.13
10992;BME280;5549;47.028;15.514;2023-04-01T03:42:01;95259.00;;;9.61;72.91
10992;BME280;5549;47.028;15.514;2023-04-01T03:44:32;95266.25;;;9.67;71.73
10992;BME280;5549;47.028;15.514;2023-04-01T03:47:00;95258.22;;;9.69;71.95
10992;BME280;5549;47.028;15.514;2023-04-01T03:49:33;95262.34;;;9.45;74.20
10992;BME280;5549;47.028;15.514;2023-04-01T03:52:03;95263.97;;;9.46;75.79
10992;BME280;5549;47.028;15.514;2023-04-01T03:54:30;95266.75;;;9.45;75.82
10992;BME280;5549;47.028;15.514;2023-04-01T03:56:58;95266.16;;;9.51;75.38
10992;BME280;5549;47.028;15.514;2023-04-01T03:59:26;95264.44;;;9.42;76.01
10992;BME280;5549;47.028;15.514;2023-04-01T04:01:58;95264.81;;;9.47;76.40
10992;BME280;5549;47.028;15.514;2023-04-01T04:04:28;95272.00;;;9.45;76.60
10992;BME280;5549;47.028;15.514;2023-04-01T04:06:56;95261.22;;;9.48;76.07
10992;BME280;5549;47.028;15.514;2023-04-01T04:09:26;95259.25;;;9.50;76.00
10992;BME280;5549;47.028;15.514;2023-04-01T04:11:54;95258.94;;;9.53;75.80
10992;BME280;5549;47.028;15.514;2023-04-01T04:14:23;95260.22;;;9.49;75.66
10992;BME280;5549;47.028;15.514;2023-04-01T04:16:51;95265.00;;;9.53;75.65
10992;BME280;5549;47.028;15.514;2023-04-01T04:19:22;95272.72;;;9.55;75.83
10992;BME280;5549;47.028;15.514;2023-04-01T04:21:50;95268.16;;;9.57;74.91
10992;BME280;5549;47.028;15.514;2023-04-01T04:24:21;95272.72;;;9.55;74.75
10992;BME280;5549;47.028;15.514;2023-04-01T04:26:51;95269.94;;;9.56;74.62
10992;BME280;5549;47.028;15.514;2023-04-01T04:29:18;95268.81;;;9.59;74.73
10992;BME280;5549;47.028;15.514;2023-04-01T04:31:46;95275.50;;;9.53;74.73
10992;BME280;5549;47.028;15.514;2023-04-01T04:34:16;95282.38;;;9.54;74.47
10992;BME280;5549;47.028;15.514;2023-04-01T04:36:46;95276.94;;;9.48;74.35
10992;BME280;5549;47.028;15.514;2023-04-01T04:39:18;95275.81;;;9.50;74.58
10992;BME280;5549;47.028;15.514;2023-04-01T04:41:49;95268.63;;;9.52;74.23
10992;BME280;5549;47.028;15.514;2023-04-01T04:44:18;95271.06;;;9.54;73.92
10992;BME280;5549;47.028;15.514;2023-04-01T04:46:49;95272.56;;;9.56;73.64
10992;BME280;5549;47.028;15.514;2023-04-01T04:49:20;95280.59;;;9.55;73.69
10992;BME280;5549;47.028;15.514;2023-04-01T04:51:49;95267.19;;;9.58;72.98
10992;BME280;5549;47.028;15.514;2023-04-01T04:54:18;95266.50;;;9.56;73.01
10992;BME280;5549;47.028;15.514;2023-04-01T04:56:46;95255.88;;;9.57;73.16
10992;BME280;5549;47.028;15.514;2023-04-01T04:59:16;95262.44;;;9.61;72.65
10992;BME280;5549;47.028;15.514;2023-04-01T05:01:46;95256.22;;;9.62;72.79
10992;BME280;5549;47.028;15.514;2023-04-01T05:04:14;95262.28;;;9.63;72.18
10992;BME280;5549;47.028;15.514;2023-04-01T05:06:45;95262.13;;;9.64;72.16
10992;BME280;5549;47.028;15.514;2023-04-01T05:09:16;95251.34;;;9.68;72.73
10992;BME280;5549;47.028;15.514;2023-04-01T05:11:44;95254.72;;;9.60;73.78
10992;BME280;5549;47.028;15.514;2023-04-01T05:14:13;95260.59;;;9.54;74.04
10992;BME280;5549;47.028;15.514;2023-04-01T05:16:44;95264.50;;;9.50;74.44
10992;BME280;5549;47.028;15.514;2023-04-01T05:19:14;95266.09;;;9.43;75.39
10992;BME280;5549;47.028;15.514;2023-04-01T05:21:44;95273.28;;;9.41;75.26
10992;BME280;5549;47.028;15.514;2023-04-01T05:24:16;95275.28;;;9.47;75.01
10992;BME280;5549;47.028;15.514;2023-04-01T05:26:46;95269.44;;;9.53;74.48
10992;BME280;5549;47.028;15.514;2023-04-01T05:29:16;95273.09;;;9.60;74.36
10992;BME280;5549;47.028;15.514;2023-04-01T05:31:46;95271.59;;;9.57;74.93
10992;BME280;5549;47.028;15.514;2023-04-01T05:34:16;95278.22;;;9.44;75.99
10992;BME280;5549;47.028;15.514;2023-04-01T05:36:45;95277.16;;;9.54;75.80
10992;BME280;5549;47.028;15.514;2023-04-01T05:39:17;95277.03;;;9.64;75.29
10992;BME280;5549;47.028;15.514;2023-04-01T05:41:45;95276.41;;;9.70;75.44
10992;BME280;5549;47.028;15.514;2023-04-01T05:44:13;95281.56;;;9.80;75.07
10992;BME280;5549;47.028;15.514;2023-04-01T05:46:41;95267.66;;;9.87;74.76
10992;BME280;5549;47.028;15.514;2023-04-01T05:49:09;95269.66;;;9.93;74.38
10992;BME280;5549;47.028;15.514;2023-04-01T05:51:40;95278.56;;;10.01;74.32
10992;BME280;5549;47.028;15.514;2023-04-01T05:54:10;95283.31;;;10.05;73.75
10992;BME280;5549;47.028;15.514;2023-04-01T05:56:40;95288.72;;;10.04;74.50
10992;BME280;5549;47.028;15.514;2023-04-01T05:59:11;95280.50;;;9.98;75.35
10992;BME280;5549;47.028;15.514;2023-04-01T06:01:41;95285.13;;;10.05;75.21
10992;BME280;5549;47.028;15.514;2023-04-01T06:04:14;95285.09;;;9.96;74.71
10992;BME280;5549;47.028;15.514;2023-04-01T06:06:42;95275.75;;;10.28;79.80
10992;BME280;5549;47.028;15.514;2023-04-01T06:09:15;95266.72;;;10.81;81.80
10992;BME280;5549;47.028;15.514;2023-04-01T06:12:16;95268.06;;;11.42;78.63
10992;BME280;5549;47.028;15.514;2023-04-01T06:15:04;95265.69;;;11.96;75.24
10992;BME280;5549;47.028;15.514;2023-04-01T06:17:52;95269.81;;;12.45;70.57
10992;BME280;5549;47.028;15.514;2023-04-01T06:20:26;95269.59;;;12.86;68.80
10992;BME280;5549;47.028;15.514;2023-04-01T06:23:23;95267.69;;;13.26;66.41
10992;BME280;5549;47.028;15.514;2023-04-01T06:26:11;95269.34;;;13.64;64.37
10992;BME280;5549;47.028;15.514;2023-04-01T06:29:02;95258.50;;;13.97;62.60
10992;BME280;5549;47.028;15.514;2023-04-01T06:31:55;95268.41;;;14.24;61.22
10992;BME280;5549;47.028;15.514;2023-04-01T06:34:47;95272.31;;;14.58;60.70
10992;BME280;5549;47.028;15.514;2023-04-01T06:37:40;95270.63;;;14.86;58.99
10992;BME280;5549;47.028;15.514;2023-04-01T06:40:48;95280.03;;;15.10;58.01
10992;BME280;5549;47.028;15.514;2023-04-01T06:43:25;95278.00;;;15.33;57.41
10992;BME280;5549;47.028;15.514;2023-04-01T06:46:03;95275.00;;;15.58;56.82
10992;BME280;5549;47.028;15.514;2023-04-01T06:48:55;95275.19;;;15.78;55.83
10992;BME280;5549;47.028;15.514;2023-04-01T06:51:37;95277.63;;;16.07;54.99
10992;BME280;5549;47.028;15.514;2023-04-01T06:54:11;95283.47;;;16.30;53.81
10992;BME280;5549;47.028;15.514;2023-04-01T06:56:45;95274.53;;;16.38;53.37
10992;BME280;5549;47.028;15.514;2023-04-01T06:59:19;95281.34;;;16.54;52.32
10992;BME280;5549;47.028;15.514;2023-04-01T07:01:52;95288.94;;;16.63;52.69
10992;BME280;5549;47.028;15.514;2023-04-01T07:04:26;95296.78;;;16.78;52.73
10992;BME280;5549;47.028;15.514;2023-04-01T07:07:00;95295.84;;;16.99;52.07
10992;BME280;5549;47.028;15.514;2023-04-01T07:09:33;95301.41;;;17.24;52.20
10992;BME280;5549;47.028;15.514;2023-04-01T07:12:15;95308.00;;;17.35;51.25
10992;BME280;5549;47.028;15.514;2023-04-01T07:14:49;95308.03;;;17.54;50.80
10992;BME280;5549;47.028;15.514;2023-04-01T07:17:27;95307.66;;;17.71;49.51
10992;BME280;5549;47.028;15.514;2023-04-01T07:20:03;95302.72;;;17.61;49.13
10992;BME280;5549;47.028;15.514;2023-04-01T07:22:35;95315.22;;;17.87;47.95
10992;BME280;5549;47.028;15.514;2023-04-01T07:25:14;95315.22;;;18.00;47.40
10992;BME280;5549;47.028;15.514;2023-04-01T07:27:46;95306.22;;;18.14;46.88
10992;BME280;5549;47.028;15.514;2023-04-01T07:30:17;95311.94;;;18.11;46.18
10992;BME280;5549;47.028;15.514;2023-04-01T07:32:51;95311.72;;;18.19;45.59
10992;BME280;5549;47.028;15.514;2023-04-01T07:35:28;95312.56;;;18.13;45.46
10992;BME280;5549;47.028;15.514;2023-04-01T07:38:15;95309.28;;;18.18;45.00
10992;BME280;5549;47.028;15.514;2023-04-01T07:40:52;95322.78;;;18.16;44.90
10992;BME280;5549;47.028;15.514;2023-04-01T07:43:42;95313.78;;;18.24;44.74
10992;BME280;5549;47.028;15.514;2023-04-01T07:46:23;95311.50;;;18.34;45.34
10992;BME280;5549;47.028;15.514;2023-04-01T07:49:09;95305.19;;;18.28;45.33
10992;BME280;5549;47.028;15.514;2023-04-01T07:51:46;95301.31;;;18.24;45.81
10992;BME280;5549;47.028;15.514;2023-04-01T07:54:22;95302.56;;;17.76;44.18
10992;BME280;5549;47.028;15.514;2023-04-01T07:57:00;95315.56;;;17.38;44.25
10992;BME280;5549;47.028;15.514;2023-04-01T07:59:40;95320.31;;;17.01;45.97
10992;BME280;5549;47.028;15.514;2023-04-01T08:02:38;95331.75;;;16.60;46.71
10992;BME280;5549;47.028;15.514;2023-04-01T08:05:22;95336.56;;;16.16;47.68
10992;BME280;5549;47.028;15.514;2023-04-01T08:08:05;95338.56;;;15.86;48.17
10992;BME280;5549;47.028;15.514;2023-04-01T08:10:46;95342.50;;;15.32;48.64
10992;BME280;5549;47.028;15.514;2023-04-01T08:13:38;95333.97;;;15.16;48.99
10992;BME280;5549;47.028;15.514;2023-04-01T08:16:15;95334.53;;;15.11;48.51
10992;BME280;5549;47.028;15.514;2023-04-01T08:18:59;95339.38;;;15.07;48.51
10992;BME280;5549;47.028;15.514;2023-04-01T08:21:43;95338.13;;;15.03;48.63
10992;BME280;5549;47.028;15.514;2023-04-01T08:24:22;95342.06;;;14.93;49.42
10992;BME280;5549;47.028;15.514;2023-04-01T08:26:57;95337.06;;;15.19;51.65
10992;BME280;5549;47.028;15.514;2023-04-01T08:29:32;95339.66;;;15.34;49.19
10992;BME280;5549;47.028;15.514;2023-04-01T08:32:09;95333.28;;;15.28;48.22
10992;BME280;5549;47.028;15.514;2023-04-01T08:34:42;95333.59;;;15.19;47.10
10992;BME280;5549;47.028;15.514;2023-04-01T08:37:17;95341.28;;;15.14;48.28
10992;BME280;5549;47.028;15.514;2023-04-01T08:39:51;95338.91;;;15.40;49.92
10992;BME280;5549;47.028;15.514;2023-04-01T08:42:48;95341.88;;;15.52;49.36
10992;BME280;5549;47.028;15.514;2023-04-01T08:45:38;95333.94;;;15.66;48.07
10992;BME280;5549;47.028;15.514;2023-04-01T08:48:45;95341.34;;;15.78;47.84
10992;BME280;5549;47.028;15.514;2023-04-01T08:55:14;95344.38;;;15.75;48.00
10992;BME280;5549;47.028;15.514;2023-04-01T08:58:01;95344.16;;;15.97;48.75
10992;BME280;5549;47.028;15.514;2023-04-01T09:00:37;95347.97;;;15.88;47.77
10992;BME280;5549;47.028;15.514;2023-04-01T09:04:24;95345.50;;;15.87;48.41
10992;BME280;5549;47.028;15.514;2023-04-01T09:07:08;95348.25;;;16.00;48.99
10992;BME280;5549;47.028;15.514;2023-04-01T09:10:12;95348.13;;;16.08;48.59
10992;BME280;5549;47.028;15.514;2023-04-01T09:13:05;95353.84;;;16.12;48.97
10992;BME280;5549;47.028;15.514;2023-04-01T09:16:03;95350.53;;;16.03;48.38
10992;BME280;5549;47.028;15.514;2023-04-01T09:19:09;95354.19;;;16.30;48.05
10992;BME280;5549;47.028;15.514;2023-04-01T09:22:08;95361.50;;;16.00;49.47
10992;BME280;5549;47.028;15.514;2023-04-01T09:24:49;95361.03;;;16.18;47.79
10992;BME280;5549;47.028;15.514;2023-04-01T09:27:27;95365.69;;;16.16;48.01
10992;BME280;5549;47.028;15.514;2023-04-01T09:30:32;95361.13;;;16.03;46.11
10992;BME280;5549;47.028;15.514;2023-04-01T09:33:52;95370.81;;;16.17;47.26
10992;BME280;5549;47.028;15.514;2023-04-01T09:36:44;95361.78;;;16.12;49.15
10992;BME280;5549;47.028;15.514;2023-04-01T09:40:00;95358.16;;;16.47;47.41
10992;BME280;5549;47.028;15.514;2023-04-01T09:42:45;95360.16;;;16.39;47.91
10992;BME280;5549;47.028;15.514;2023-04-01T09:45:52;95362.47;;;16.20;46.33
10992;BME280;5549;47.028;15.514;2023-04-01T09:52:20;95364.50;;;16.18;48.32
10992;BME280;5549;47.028;15.514;2023-04-01T09:55:27;95365.16;;;16.55;44.80
10992;BME280;5549;47.028;15.514;2023-04-01T09:58:42;95364.13;;;16.90;44.39
10992;BME280;5549;47.028;15.514;2023-04-01T10:01:57;95367.97;;;16.81;43.50
10992;BME280;5549;47.028;15.514;2023-04-01T10:11:52;95367.13;;;16.74;41.22
10992;BME280;5549;47.028;15.514;2023-04-01T10:18:55;95376.00;;;16.32;42.36
10992;BME280;5549;47.028;15.514;2023-04-01T10:28:56;95368.00;;;16.53;42.28
10992;BME280;5549;47.028;15.514;2023-04-01T10:35:37;95374.44;;;16.72;43.90
10992;BME280;5549;47.028;15.514;2023-04-01T10:39:01;95365.09;;;16.76;42.95
10992;BME280;5549;47.028;15.514;2023-04-01T10:55:44;95364.13;;;16.90;40.67
10992;BME280;5549;47.028;15.514;2023-04-01T11:02:27;95364.28;;;17.30;39.69
10992;BME280;5549;47.028;15.514;2023-04-01T11:13:00;95355.56;;;16.88;38.55
10992;BME280;5549;47.028;15.514;2023-04-01T11:16:28;95355.63;;;17.02;37.56
10992;BME280;5549;47.028;15.514;2023-04-01T11:20:02;95360.03;;;16.81;37.90
10992;BME280;5549;47.028;15.514;2023-04-01T11:23:04;95360.84;;;16.82;37.80
10992;BME280;5549;47.028;15.514;2023-04-01T11:25:50;95360.94;;;17.08;38.00
10992;BME280;5549;47.028;15.514;2023-04-01T11:29:15;95362.44;;;17.24;36.98
10992;BME280;5549;47.028;15.514;2023-04-01T11:32:12;95358.22;;;17.36;37.55
10992;BME280;5549;47.028;15.514;2023-04-01T11:35:03;95354.69;;;17.29;36.76
10992;BME280;5549;47.028;15.514;2023-04-01T11:37:41;95354.28;;;17.32;37.04
10992;BME280;5549;47.028;15.514;2023-04-01T11:40:23;95358.88;;;17.51;37.57
10992;BME280;5549;47.028;15.514;2023-04-01T11:43:04;95354.09;;;17.33;36.57
10992;BME280;5549;47.028;15.514;2023-04-01T11:45:40;95354.16;;;17.47;37.16
10992;BME280;5549;47.028;15.514;2023-04-01T11:48:27;95358.28;;;17.62;36.57
10992;BME280;5549;47.028;15.514;2023-04-01T11:51:30;95354.16;;;17.40;35.62
10992;BME280;5549;47.028;15.514;2023-04-01T11:54:26;95356.59;;;17.35;37.45
10992;BME280;5549;47.028;15.514;2023-04-01T11:57:26;95355.00;;;17.60;37.20
10992;BME280;5549;47.028;15.514;2023-04-01T12:00:24;95356.22;;;17.58;35.75
10992;BME280;5549;47.028;15.514;2023-04-01T12:03:21;95361.53;;;17.51;36.87
10992;BME280;5549;47.028;15.514;2023-04-01T12:05:58;95354.19;;;17.53;36.44
10992;BME280;5549;47.028;15.514;2023-04-01T12:08:46;95351.59;;;17.73;36.45
10992;BME280;5549;47.028;15.514;2023-04-01T12:11:39;95349.75;;;17.80;36.43
10992;BME280;5549;47.028;15.514;2023-04-01T12:14:22;95354.41;;;17.65;34.83
10992;BME280;5549;47.028;15.514;2023-04-01T12:17:06;95353.22;;;17.68;34.88
10992;BME280;5549;47.028;15.514;2023-04-01T12:19:44;95353.38;;;17.59;34.89
10992;BME280;5549;47.028;15.514;2023-04-01T12:22:46;95358.69;;;17.59;33.65
10992;BME280;5549;47.028;15.514;2023-04-01T12:25:28;95359.34;;;17.75;34.81
10992;BME280;5549;47.028;15.514;2023-04-01T12:28:18;95356.91;;;17.93;34.85
10992;BME280;5549;47.028;15.514;2023-04-01T12:31:15;95359.50;;;17.60;34.69
10992;BME280;5549;47.028;15.514;2023-04-01T12:34:00;95359.09;;;17.56;34.50
10992;BME280;5549;47.028;15.514;2023-04-01T12:36:47;95357.88;;;17.66;34.29
10992;BME280;5549;47.028;15.514;2023-04-01T12:39:51;95357.09;;;17.85;34.64
10992;BME280;5549;47.028;15.514;2023-04-01T12:42:48;95354.84;;;17.75;33.39
10992;BME280;5549;47.028;15.514;2023-04-01T12:45:30;95355.38;;;17.44;33.55
10992;BME280;5549;47.028;15.514;2023-04-01T12:48:20;95352.00;;;17.90;34.07
10992;BME280;5549;47.028;15.514;2023-04-01T12:51:32;95352.97;;;17.62;34.53
10992;BME280;5549;47.028;15.514;2023-04-01T12:54:51;95340.78;;;17.94;34.93
10992;BME280;5549;47.028;15.514;2023-04-01T12:58:06;95335.84;;;18.11;35.01
10992;BME280;5549;47.028;15.514;2023-04-01T13:10:08;95313.78;;;17.98;32.92
10992;BME280;5549;47.028;15.514;2023-04-01T13:13:10;95311.31;;;18.22;33.94
10992;BME280;5549;47.028;15.514;2023-04-01T13:15:42;95307.66;;;17.97;32.92
10992;BME280;5549;47.028;15.514;2023-04-01T13:18:25;95309.72;;;17.95;31.58
10992;BME280;5549;47.028;15.514;2023-04-01T13:21:06;95314.00;;;17.83;30.71
10992;BME280;5549;47.028;15.514;2023-04-01T13:23:52;95311.34;;;17.76;32.90
10992;BME280;5549;47.028;15.514;2023-04-01T13:26:27;95313.78;;;17.84;33.01
10992;BME280;5549;47.028;15.514;2023-04-01T13:29:06;95321.16;;;17.82;32.72
10992;BME280;5549;47.028;15.514;2023-04-01T13:31:58;95308.06;;;17.94;32.41
10992;BME280;5549;47.028;15.514;2023-04-01T13:34:44;95312.38;;;17.82;32.30
10992;BME280;5549;47.028;15.514;2023-04-01T13:37:31;95318.09;;;17.79;33.20
10992;BME280;5549;47.028;15.514;2023-04-01T13:40:39;95318.03;;;17.66;31.13
10992;BME280;5549;47.028;15.514;2023-04-01T13:43:15;95310.94;;;17.73;31.52
10992;BME280;5549;47.028;15.514;2023-04-01T13:46:22;95309.50;;;17.90;32.23
10992;BME280;5549;47.028;15.514;2023-04-01T13:49:31;95305.59;;;17.59;31.32
10992;BME280;5549;47.028;15.514;2023-04-01T13:52:33;95300.72;;;18.03;31.71
10992;BME280;5549;47.028;15.514;2023-04-01T13:55:36;95298.47;;;17.93;30.40
10992;BME280;5549;47.028;15.514;2023-04-01T14:01:15;95287.44;;;18.09;30.92
10992;BME280;5549;47.028;15.514;2023-04-01T14:04:26;95288.84;;;18.18;34.54
10992;BME280;5549;47.028;15.514;2023-04-01T14:07:05;95280.44;;;18.35;32.49
10992;BME280;5549;47.028;15.514;2023-04-01T14:10:04;95277.00;;;18.01;31.16
10992;BME280;5549;47.028;15.514;2023-04-01T14:12:46;95278.81;;;18.20;31.45
10992;BME280;5549;47.028;15.514;2023-04-01T14:18:46;95272.72;;;18.13;31.74
10992;BME280;5549;47.028;15.514;2023-04-01T14:21:33;95278.84;;;17.94;30.55
10992;BME280;5549;47.028;15.514;2023-04-01T14:24:23;95269.63;;;18.16;31.58
10992;BME280;5549;47.028;15.514;2023-04-01T14:27:42;95263.81;;;18.66;30.60
10992;BME280;5549;47.028;15.514;2023-04-01T14:30:41;95269.94;;;18.59;30.36
10992;BME280;5549;47.028;15.514;2023-04-01T14:33:26;95270.63;;;18.28;29.31
10992;BME280;5549;47.028;15.514;2023-04-01T14:36:04;95271.69;;;18.08;30.04
10992;BME280;5549;47.028;15.514;2023-04-01T14:50:44;95254.94;;;18.78;29.10
10992;BME280;5549;47.028;15.514;2023-04-01T14:53:27;95255.56;;;18.80;28.64
10992;BME280;5549;47.028;15.514;2023-04-01T14:55:57;95258.50;;;19.04;28.37
10992;BME280;5549;47.028;15.514;2023-04-01T14:58:40;95249.34;;;18.93;28.28
10992;BME280;5549;47.028;15.514;2023-04-01T15:01:25;95252.59;;;19.02;29.59
10992;BME280;5549;47.028;15.514;2023-04-01T15:04:13;95256.28;;;19.01;29.94
10992;BME280;5549;47.028;15.514;2023-04-01T15:07:09;95259.28;;;18.66;28.58
10992;BME280;5549;47.028;15.514;2023-04-01T15:09:45;95246.22;;;19.03;28.24
10992;BME280;5549;47.028;15.514;2023-04-01T15:12:27;95257.25;;;19.13;28.21
10992;BME280;5549;47.028;15.514;2023-04-01T15:15:21;95253.69;;;18.87;28.08
10992;BME280;5549;47.028;15.514;2023-04-01T15:18:03;95247.00;;;18.72;27.75
10992;BME280;5549;47.028;15.514;2023-04-01T15:21:10;95249.56;;;18.91;28.50
10992;BME280;5549;47.028;15.514;2023-04-01T15:23:57;95254.34;;;18.76;27.81
10992;BME280;5549;47.028;15.514;2023-04-01T15:26:47;95250.69;;;18.71;27.40
10992;BME280;5549;47.028;15.514;2023-04-01T15:32:32;95247.41;;;18.69;27.59
10992;BME280;5549;47.028;15.514;2023-04-01T15:35:21;95248.25;;;18.69;27.06
10992;BME280;5549;47.028;15.514;2023-04-01T15:37:56;95244.97;;;18.60;28.24
10992;BME280;5549;47.028;15.514;2023-04-01T15:40:32;95252.50;;;18.77;27.82
10992;BME280;5549;47.028;15.514;2023-04-01T15:43:15;95246.63;;;18.62;28.37